createdAt,value
2024-03-02T00:04:07.586Z,100.0
2024-03-02T00:24:07.713Z,100.0
2024-03-02T00:44:07.602Z,100.0
2024-03-02T01:04:07.557Z,100.0
2024-03-02T01:24:07.721Z,100.0
2024-03-02T01:44:07.567Z,100.0
2024-03-02T02:04:07.627Z,100.0
2024-03-02T02:24:07.584Z,100.0
2024-03-02T02:44:07.548Z,100.0
2024-03-02T03:04:07.600Z,100.0
2024-03-02T03:24:07.560Z,100.0
2024-03-02T03:44:07.514Z,100.0
2024-03-02T04:04:07.568Z,100.0
2024-03-02T04:24:07.535Z,100.0
2024-03-02T04:44:07.488Z,100.0
2024-03-02T05:04:07.556Z,100.0
2024-03-02T05:24:07.524Z,100.0
2024-03-02T05:44:07.473Z,100.0
2024-03-02T06:04:07.725Z,100.0
2024-03-02T06:24:07.559Z,100.0
2024-03-02T06:44:07.465Z,100.0
2024-03-02T07:04:07.435Z,100.0
2024-03-02T07:24:07.556Z,100.0
2024-03-02T07:44:07.471Z,100.0
2024-03-02T08:04:07.409Z,100.0
2024-03-02T08:24:07.478Z,100.0
2024-03-02T08:44:07.464Z,100.0
2024-03-02T09:04:07.428Z,98.0
2024-03-02T09:24:07.376Z,96.2
2024-03-02T09:44:07.448Z,91.2
2024-03-02T10:04:07.814Z,85.9
2024-03-02T10:24:07.764Z,83.5
2024-03-02T10:44:07.511Z,84.4
2024-03-02T11:04:07.477Z,83.9
2024-03-02T11:24:07.497Z,83.2
2024-03-02T11:44:07.563Z,84.0
2024-03-02T12:04:07.493Z,82.2
2024-03-02T12:24:07.678Z,80.8
2024-03-02T12:44:07.602Z,77.7
2024-03-02T13:04:07.621Z,80.5
2024-03-02T13:24:07.684Z,77.2
2024-03-02T13:44:07.528Z,76.1
2024-03-02T14:04:07.497Z,77.9
2024-03-02T14:24:07.147Z,78.5
2024-03-02T14:44:07.552Z,78.0
2024-03-02T15:04:07.260Z,78.9
2024-03-02T15:24:07.109Z,80.4
2024-03-02T15:44:07.211Z,78.9
2024-03-02T16:04:07.166Z,83.5
2024-03-02T16:24:07.137Z,85.3
2024-03-02T16:44:07.028Z,87.3
2024-03-02T17:04:07.135Z,89.9
2024-03-02T17:24:07.095Z,92.0
2024-03-02T17:44:07.036Z,94.0
2024-03-02T18:04:07.184Z,95.3
2024-03-02T18:24:06.971Z,96.3
2024-03-02T18:44:06.951Z,97.3
2024-03-02T19:04:06.937Z,98.1
2024-03-02T19:24:07.012Z,98.9
2024-03-02T19:44:07.150Z,99.7
2024-03-02T20:04:06.917Z,100.0
2024-03-02T20:24:07.000Z,100.0
2024-03-02T20:44:06.926Z,100.0
2024-03-02T21:04:06.966Z,100.0
2024-03-02T21:24:06.872Z,100.0
2024-03-02T21:44:07.063Z,100.0
2024-03-02T22:04:06.948Z,100.0
2024-03-02T22:24:06.850Z,100.0
2024-03-02T22:44:07.013Z,100.0
2024-03-02T23:04:06.868Z,100.0
2024-03-02T23:24:06.935Z,100.0
2024-03-02T23:44:06.876Z,100.0
